Merna, Nebraska
Current Conditions -  °F | °C
As of 8:53 AM on Sunday 23 Nov 2014 (Local Time) from KBBW Reporting Station
Overcast Overcast  
Wind Chill: 34°   Ceiling: 8000
Heat Index: 43°   Visibility: 10mi
Dew Point: 28°   Wind: 21mph
Humidity: 56%   Direction: 340°NNW
Pressure: 29.64"   Gusts: 31mph
Location:  41.48°N, 99.76°W
Report Text: KBBW 231453Z AUTO 34018G27KT 10SM OVC080 06/M02 A2964 RMK AO2 PK WND 34027/1448 SLP042 T00611022 51032 PWINO $
Loading
Personal Weather Stations






























Interactive Weather Map New forecast layout! Learn more

10-Day Weather Forecast

Advertisements
Track Severe Weather on mobile